createdAt,value
2023-01-29T00:02:00.599Z,10.48
2023-01-29T00:04:30.588Z,10.98
2023-01-29T00:06:58.392Z,11.07
2023-01-29T00:09:25.900Z,11.50
2023-01-29T00:11:54.017Z,11.82
2023-01-29T00:14:22.612Z,10.77
2023-01-29T00:16:54.152Z,11.60
2023-01-29T00:19:21.883Z,11.77
2023-01-29T00:21:50.917Z,11.82
2023-01-29T00:24:18.500Z,11.98
2023-01-29T00:26:46.107Z,11.52
2023-01-29T00:29:14.009Z,11.57
2023-01-29T00:31:41.671Z,12.17
2023-01-29T00:34:09.299Z,11.35
2023-01-29T00:36:36.891Z,11.98
2023-01-29T00:39:10.660Z,11.55
2023-01-29T00:42:10.747Z,12.25
2023-01-29T00:44:55.660Z,11.37
2023-01-29T00:47:33.396Z,11.52
2023-01-29T00:50:05.380Z,11.05
2023-01-29T00:52:33.238Z,11.00
2023-01-29T00:55:02.329Z,12.07
2023-01-29T00:57:31.011Z,11.47
2023-01-29T00:59:58.924Z,11.60
2023-01-29T01:02:44.155Z,11.70
2023-01-29T01:05:14.359Z,9.52
2023-01-29T01:07:42.043Z,9.80
2023-01-29T01:10:23.631Z,10.57
2023-01-29T01:12:54.228Z,10.85
2023-01-29T01:15:22.239Z,10.05
2023-01-29T01:17:53.355Z,9.65
2023-01-29T01:20:21.139Z,11.15
2023-01-29T01:22:48.685Z,9.57
2023-01-29T01:25:19.586Z,9.45
2023-01-29T01:27:48.441Z,10.23
2023-01-29T01:30:17.656Z,8.82
2023-01-29T01:32:45.677Z,8.23
2023-01-29T01:35:14.801Z,9.17
2023-01-29T01:37:42.792Z,8.10
2023-01-29T01:40:12.997Z,9.27
2023-01-29T01:42:42.321Z,8.75
2023-01-29T01:45:18.725Z,8.25
2023-01-29T01:47:47.902Z,8.70
2023-01-29T01:50:16.552Z,8.10
2023-01-29T01:52:46.398Z,9.00
2023-01-29T01:55:15.639Z,9.20
2023-01-29T01:57:46.202Z,8.13
2023-01-29T02:00:16.461Z,8.40
2023-01-29T02:03:05.561Z,8.55
2023-01-29T02:05:51.995Z,8.52
2023-01-29T02:08:39.307Z,9.13
2023-01-29T02:11:07.211Z,8.32
2023-01-29T02:13:36.238Z,9.97
2023-01-29T02:16:03.848Z,8.30
2023-01-29T02:18:38.135Z,10.23
2023-01-29T02:21:13.471Z,9.40
2023-01-29T02:23:52.795Z,9.15
2023-01-29T02:26:34.976Z,9.50
2023-01-29T02:29:22.306Z,9.48
2023-01-29T02:31:53.214Z,9.02
2023-01-29T02:34:26.691Z,9.75
2023-01-29T02:36:58.544Z,9.55
2023-01-29T02:39:30.533Z,9.57
2023-01-29T02:42:01.981Z,8.63
2023-01-29T02:44:35.641Z,9.65
2023-01-29T02:47:05.133Z,9.00
2023-01-29T02:49:34.347Z,9.02
2023-01-29T02:52:04.022Z,9.13
2023-01-29T02:54:34.647Z,8.60
2023-01-29T02:57:08.973Z,7.80
2023-01-29T02:59:39.341Z,7.80
2023-01-29T03:02:09.590Z,8.20
2023-01-29T03:04:42.516Z,7.73
2023-01-29T03:07:22.524Z,8.05
2023-01-29T03:09:52.021Z,8.35
2023-01-29T03:12:29.072Z,7.60
2023-01-29T03:15:16.672Z,8.70
2023-01-29T03:17:47.836Z,8.67
2023-01-29T03:20:23.802Z,8.95
2023-01-29T03:22:54.322Z,9.45
2023-01-29T03:25:41.623Z,8.20
2023-01-29T03:28:28.701Z,9.60
2023-01-29T03:31:16.415Z,8.73
2023-01-29T03:33:46.713Z,8.82
2023-01-29T03:36:17.317Z,9.13
2023-01-29T03:38:45.197Z,8.32
2023-01-29T03:41:17.082Z,7.90
2023-01-29T03:43:49.061Z,8.33
2023-01-29T03:46:22.471Z,9.18
2023-01-29T03:48:55.607Z,8.07
2023-01-29T03:51:26.181Z,7.85
2023-01-29T03:53:57.053Z,8.98
2023-01-29T03:56:38.135Z,7.80
2023-01-29T03:59:13.186Z,7.75
2023-01-29T04:01:47.617Z,7.32
2023-01-29T04:04:16.225Z,8.73
2023-01-29T04:06:45.437Z,7.75
2023-01-29T04:09:15.731Z,9.00
2023-01-29T04:11:45.713Z,9.18
2023-01-29T04:14:14.047Z,9.02
2023-01-29T04:16:45.604Z,8.73
2023-01-29T04:19:13.488Z,8.90
2023-01-29T04:21:41.541Z,9.17
2023-01-29T04:24:09.511Z,9.57
2023-01-29T04:26:57.777Z,8.90
2023-01-29T04:29:38.247Z,8.73
2023-01-29T04:32:10.634Z,8.90
2023-01-29T04:34:42.549Z,8.90
2023-01-29T04:37:13.765Z,9.13
2023-01-29T04:39:45.203Z,8.95
2023-01-29T04:42:15.082Z,8.95
2023-01-29T04:44:46.022Z,8.80
2023-01-29T04:47:19.781Z,9.37
2023-01-29T04:49:51.288Z,10.35
2023-01-29T04:52:23.091Z,8.63
2023-01-29T04:54:58.340Z,8.85
2023-01-29T04:57:27.779Z,9.10
2023-01-29T04:59:59.372Z,8.53
2023-01-29T05:02:29.067Z,9.45
2023-01-29T05:04:56.990Z,9.95
2023-01-29T05:07:25.469Z,9.18
2023-01-29T05:09:53.496Z,9.65
2023-01-29T05:12:21.197Z,10.23
2023-01-29T05:14:50.374Z,9.93
2023-01-29T05:17:19.856Z,11.25
2023-01-29T05:19:48.919Z,9.77
2023-01-29T05:22:17.887Z,10.13
2023-01-29T05:24:46.618Z,10.23
2023-01-29T05:27:35.268Z,10.50
2023-01-29T05:30:07.946Z,10.07
2023-01-29T05:32:35.523Z,10.40
2023-01-29T05:35:04.504Z,10.48
2023-01-29T05:37:32.293Z,10.20
2023-01-29T05:39:59.917Z,10.10
2023-01-29T05:42:27.444Z,10.00
2023-01-29T05:44:55.175Z,9.80
2023-01-29T05:47:22.778Z,9.10
2023-01-29T05:49:50.281Z,10.03
2023-01-29T05:52:19.295Z,10.07
2023-01-29T05:54:46.840Z,9.95
2023-01-29T05:57:15.511Z,10.13
2023-01-29T05:59:44.368Z,10.45
2023-01-29T06:02:12.001Z,10.37
2023-01-29T06:04:39.559Z,10.05
2023-01-29T06:07:07.312Z,9.35
2023-01-29T06:09:40.584Z,10.55
2023-01-29T06:12:08.488Z,9.20
2023-01-29T06:14:36.150Z,10.43
2023-01-29T06:17:03.692Z,9.40
2023-01-29T06:19:31.337Z,9.68
2023-01-29T06:21:59.009Z,10.55
2023-01-29T06:24:26.658Z,10.85
2023-01-29T06:26:55.857Z,10.47
2023-01-29T06:29:23.382Z,9.48
2023-01-29T06:31:51.045Z,9.95
2023-01-29T06:34:19.407Z,10.50
2023-01-29T06:36:46.999Z,10.40
2023-01-29T06:39:14.650Z,10.33
2023-01-29T06:41:42.404Z,9.43
2023-01-29T06:44:11.357Z,10.23
2023-01-29T06:46:42.965Z,9.98
2023-01-29T06:49:10.962Z,9.68
2023-01-29T06:51:38.485Z,9.87
2023-01-29T06:54:08.270Z,10.05
2023-01-29T06:56:36.014Z,10.73
2023-01-29T06:59:07.557Z,9.45
2023-01-29T07:01:45.974Z,9.77
2023-01-29T07:04:13.552Z,9.53
2023-01-29T07:06:41.273Z,8.63
2023-01-29T07:09:08.918Z,10.32
2023-01-29T07:11:37.884Z,10.10
2023-01-29T07:14:05.683Z,9.80
2023-01-29T07:16:33.490Z,9.60
2023-01-29T07:19:02.701Z,9.60
2023-01-29T07:21:30.346Z,8.93
2023-01-29T07:23:58.540Z,10.43
2023-01-29T07:26:26.158Z,8.45
2023-01-29T07:28:54.244Z,8.37
2023-01-29T07:31:22.949Z,8.18
2023-01-29T07:33:50.593Z,8.98
2023-01-29T07:36:19.703Z,8.60
2023-01-29T07:38:50.060Z,9.02
2023-01-29T07:41:17.878Z,8.37
2023-01-29T07:43:45.529Z,9.07
2023-01-29T07:46:13.214Z,7.47
2023-01-29T07:48:40.793Z,8.55
2023-01-29T07:51:08.435Z,9.05
2023-01-29T07:53:38.171Z,8.03
2023-01-29T07:56:06.084Z,8.15
2023-01-29T07:58:35.728Z,8.57
2023-01-29T08:01:07.299Z,8.90
2023-01-29T08:03:34.929Z,9.07
2023-01-29T08:06:02.551Z,8.87
2023-01-29T08:08:30.254Z,8.82
2023-01-29T08:11:01.462Z,9.35
2023-01-29T08:13:29.099Z,8.30
2023-01-29T08:16:00.337Z,9.88
2023-01-29T08:18:29.294Z,9.00
2023-01-29T08:21:03.553Z,9.82
2023-01-29T08:23:32.830Z,8.52
2023-01-29T08:26:03.109Z,8.52
2023-01-29T08:28:30.698Z,8.95
2023-01-29T08:30:58.784Z,8.90
2023-01-29T08:33:38.289Z,8.85
2023-01-29T08:36:06.659Z,9.43
2023-01-29T08:38:34.366Z,8.82
2023-01-29T08:41:03.375Z,7.70
2023-01-29T08:43:31.092Z,8.37
2023-01-29T08:45:58.700Z,9.95
2023-01-29T08:48:27.368Z,8.60
2023-01-29T08:50:57.982Z,8.60
2023-01-29T08:53:25.919Z,8.30
2023-01-29T08:55:53.956Z,9.00
2023-01-29T08:58:23.170Z,9.45
2023-01-29T09:00:50.767Z,9.18
2023-01-29T09:03:18.387Z,9.13
2023-01-29T09:05:46.802Z,9.55
2023-01-29T09:08:15.439Z,10.53
2023-01-29T09:10:43.028Z,10.10
2023-01-29T09:13:10.777Z,8.70
2023-01-29T09:15:39.691Z,8.85
2023-01-29T09:18:07.213Z,8.55
2023-01-29T09:20:35.332Z,9.73
2023-01-29T09:23:05.065Z,9.60
2023-01-29T09:25:32.620Z,8.73
2023-01-29T09:28:00.533Z,10.15
2023-01-29T09:30:28.111Z,8.27
2023-01-29T09:32:57.036Z,10.07
2023-01-29T09:35:25.613Z,8.07
2023-01-29T09:37:54.190Z,8.35
2023-01-29T09:40:25.886Z,8.88
2023-01-29T09:42:55.762Z,10.23
2023-01-29T09:45:25.671Z,9.23
2023-01-29T09:47:54.906Z,8.43
2023-01-29T09:50:26.067Z,9.43
2023-01-29T09:52:56.796Z,8.23
2023-01-29T09:55:26.218Z,8.93
2023-01-29T09:57:56.406Z,8.77
2023-01-29T10:00:25.549Z,8.60
2023-01-29T10:02:58.886Z,9.48
2023-01-29T10:05:34.760Z,8.90
2023-01-29T10:08:23.741Z,7.70
2023-01-29T10:10:59.360Z,7.50
2023-01-29T10:13:30.429Z,8.43
2023-01-29T10:16:08.421Z,6.80
2023-01-29T10:18:56.741Z,7.18
2023-01-29T10:21:35.394Z,6.22
2023-01-29T10:24:06.745Z,6.50
2023-01-29T10:26:36.040Z,6.88
2023-01-29T10:29:06.806Z,5.80
2023-01-29T10:31:38.777Z,6.68
2023-01-29T10:34:13.402Z,5.40
2023-01-29T10:36:44.301Z,5.70
2023-01-29T10:39:16.275Z,5.68
2023-01-29T10:41:49.106Z,5.97
2023-01-29T10:44:21.941Z,6.47
2023-01-29T10:46:58.865Z,6.07
2023-01-29T10:49:36.391Z,6.97
2023-01-29T10:52:11.860Z,7.07
2023-01-29T10:54:50.380Z,8.05
2023-01-29T10:57:24.277Z,6.00
2023-01-29T11:00:01.594Z,6.68
2023-01-29T11:02:29.227Z,5.97
2023-01-29T11:04:57.138Z,6.35
2023-01-29T11:07:27.791Z,6.10
2023-01-29T11:09:58.771Z,6.00
2023-01-29T11:12:30.566Z,6.03
2023-01-29T11:15:00.467Z,5.30
2023-01-29T11:17:28.312Z,5.25
2023-01-29T11:19:56.694Z,5.45
2023-01-29T11:22:25.512Z,5.82
2023-01-29T11:25:13.994Z,5.55
2023-01-29T11:27:44.853Z,5.27
2023-01-29T11:30:17.825Z,5.10
2023-01-29T11:32:45.815Z,4.93
2023-01-29T11:35:22.013Z,4.80
2023-01-29T11:37:49.783Z,4.00
2023-01-29T11:40:35.624Z,4.37
2023-01-29T11:43:18.928Z,3.47
2023-01-29T11:45:46.930Z,3.70
2023-01-29T11:48:16.034Z,3.28
2023-01-29T11:50:43.880Z,3.40
2023-01-29T11:53:24.453Z,3.77
2023-01-29T11:55:54.603Z,3.25
2023-01-29T11:58:26.430Z,3.45
2023-01-29T12:00:55.443Z,3.75
2023-01-29T12:03:25.175Z,3.47
2023-01-29T12:05:58.267Z,3.67
2023-01-29T12:08:25.969Z,3.53
2023-01-29T12:11:08.197Z,4.00
2023-01-29T12:13:39.031Z,3.42
2023-01-29T12:16:12.706Z,3.20
2023-01-29T12:18:42.416Z,3.47
2023-01-29T12:21:13.288Z,3.22
2023-01-29T12:23:44.399Z,3.47
2023-01-29T12:26:16.243Z,3.60
2023-01-29T12:28:49.449Z,2.88
2023-01-29T12:31:23.619Z,3.40
2023-01-29T12:33:54.270Z,3.45
2023-01-29T12:36:24.562Z,3.13
2023-01-29T12:38:52.131Z,3.05
2023-01-29T12:41:29.669Z,3.38
2023-01-29T12:44:01.116Z,3.00
2023-01-29T12:46:30.280Z,3.03
2023-01-29T12:49:00.003Z,3.33
2023-01-29T12:51:30.836Z,3.72
2023-01-29T12:54:01.135Z,3.10
2023-01-29T12:56:30.910Z,3.20
2023-01-29T12:59:00.322Z,3.30
2023-01-29T13:01:31.387Z,2.50
2023-01-29T13:04:00.860Z,2.88
2023-01-29T13:06:31.637Z,2.60
2023-01-29T13:09:00.471Z,2.73
2023-01-29T13:11:31.141Z,2.72
2023-01-29T13:14:00.985Z,2.35
2023-01-29T13:16:30.042Z,1.38
2023-01-29T13:18:59.143Z,1.77
2023-01-29T13:21:28.263Z,2.20
2023-01-29T13:23:57.457Z,1.77
2023-01-29T13:26:26.577Z,1.92
2023-01-29T13:28:54.497Z,2.10
2023-01-29T13:31:29.226Z,1.77
2023-01-29T13:34:00.231Z,1.90
2023-01-29T13:36:29.239Z,1.83
2023-01-29T13:39:00.695Z,1.73
2023-01-29T13:41:35.393Z,1.67
2023-01-29T13:44:03.322Z,1.40
2023-01-29T13:46:34.594Z,1.77
2023-01-29T13:49:05.101Z,0.98
2023-01-29T13:51:35.822Z,1.50
2023-01-29T13:54:04.860Z,2.67
2023-01-29T13:56:52.095Z,3.20
2023-01-29T13:59:23.967Z,3.63
2023-01-29T14:02:09.584Z,2.80
2023-01-29T14:04:39.834Z,1.83
2023-01-29T14:07:29.158Z,0.75
2023-01-29T14:10:05.788Z,0.80
2023-01-29T14:12:35.888Z,1.07
2023-01-29T14:15:19.097Z,1.50
2023-01-29T14:18:15.800Z,1.17
2023-01-29T14:20:53.058Z,2.88
2023-01-29T14:23:31.832Z,1.70
2023-01-29T14:26:00.766Z,1.20
2023-01-29T14:28:30.617Z,1.27
2023-01-29T14:30:58.458Z,1.55
2023-01-29T14:33:27.977Z,0.85
2023-01-29T14:35:57.821Z,1.30
2023-01-29T14:38:27.503Z,0.73
2023-01-29T14:41:03.973Z,1.70
2023-01-29T14:43:31.594Z,1.42
2023-01-29T14:46:19.270Z,1.10
2023-01-29T14:48:48.658Z,1.35
2023-01-29T14:51:18.678Z,1.10
2023-01-29T14:54:04.049Z,1.83
2023-01-29T14:56:34.544Z,2.30
2023-01-29T14:59:13.124Z,1.30
2023-01-29T15:01:48.234Z,3.47
2023-01-29T15:04:19.331Z,2.30
2023-01-29T15:06:49.024Z,2.47
2023-01-29T15:09:18.908Z,1.92
2023-01-29T15:11:51.334Z,2.25
2023-01-29T15:14:24.965Z,3.08
2023-01-29T15:17:03.712Z,1.63
2023-01-29T15:19:35.224Z,2.75
2023-01-29T15:22:04.878Z,2.50
2023-01-29T15:24:32.448Z,2.90
2023-01-29T15:27:00.003Z,2.38
2023-01-29T15:29:28.797Z,2.20
2023-01-29T15:31:56.926Z,2.15
2023-01-29T15:34:24.571Z,2.63
2023-01-29T15:36:53.214Z,2.20
2023-01-29T15:39:23.674Z,3.10
2023-01-29T15:41:53.218Z,2.83
2023-01-29T15:44:21.885Z,3.25
2023-01-29T15:46:52.054Z,2.75
2023-01-29T15:49:26.442Z,2.35
2023-01-29T15:51:56.978Z,1.90
2023-01-29T15:54:30.945Z,2.70
2023-01-29T15:56:58.721Z,2.55
2023-01-29T15:59:27.681Z,2.20
2023-01-29T16:01:56.370Z,2.33
2023-01-29T16:04:26.778Z,2.15
2023-01-29T16:06:55.383Z,2.07
2023-01-29T16:09:26.344Z,2.03
2023-01-29T16:11:58.584Z,2.20
2023-01-29T16:14:26.432Z,2.63
2023-01-29T16:17:12.317Z,2.33
2023-01-29T16:19:39.871Z,2.40
2023-01-29T16:22:10.123Z,2.80
2023-01-29T16:24:38.464Z,2.90
2023-01-29T16:27:12.131Z,2.65
2023-01-29T16:29:40.061Z,2.83
2023-01-29T16:32:09.985Z,2.50
2023-01-29T16:34:38.949Z,2.95
2023-01-29T16:37:07.862Z,2.63
2023-01-29T16:39:37.843Z,1.80
2023-01-29T16:42:21.222Z,2.58
2023-01-29T16:44:52.039Z,2.03
2023-01-29T16:47:24.492Z,2.90
2023-01-29T16:49:53.081Z,1.92
2023-01-29T16:52:24.231Z,2.70
2023-01-29T16:54:52.154Z,2.00
2023-01-29T16:57:23.198Z,1.60
2023-01-29T16:59:54.261Z,1.00
2023-01-29T17:02:24.797Z,1.40
2023-01-29T17:04:54.130Z,1.00
2023-01-29T17:07:22.513Z,1.40
2023-01-29T17:09:52.972Z,0.90
2023-01-29T17:12:25.110Z,1.17
2023-01-29T17:14:56.719Z,0.98
2023-01-29T17:17:29.650Z,0.70
2023-01-29T17:19:59.586Z,0.93
2023-01-29T17:22:27.210Z,0.80
2023-01-29T17:24:55.351Z,1.13
2023-01-29T17:27:24.227Z,1.15
2023-01-29T17:29:53.354Z,1.17
2023-01-29T17:32:21.292Z,1.27
2023-01-29T17:34:48.899Z,1.37
2023-01-29T17:37:17.083Z,1.65
2023-01-29T17:39:44.759Z,1.67
2023-01-29T17:42:13.666Z,1.65
2023-01-29T17:44:45.000Z,1.75
2023-01-29T17:47:15.410Z,2.00
2023-01-29T17:49:43.379Z,2.72
2023-01-29T17:52:11.422Z,2.35
2023-01-29T17:54:40.109Z,2.45
2023-01-29T17:57:07.826Z,2.55
2023-01-29T17:59:35.410Z,2.27
2023-01-29T18:02:04.556Z,2.50
2023-01-29T18:04:32.226Z,2.75
2023-01-29T18:06:59.836Z,2.20
2023-01-29T18:09:27.950Z,3.05
2023-01-29T18:11:56.517Z,2.77
2023-01-29T18:14:24.099Z,2.53
2023-01-29T18:16:57.274Z,2.15
2023-01-29T18:19:28.220Z,2.42
2023-01-29T18:21:56.088Z,2.20
2023-01-29T18:24:23.802Z,2.30
2023-01-29T18:26:52.086Z,2.60
2023-01-29T18:29:19.783Z,2.40
2023-01-29T18:31:49.018Z,2.50
2023-01-29T18:34:16.950Z,2.58
2023-01-29T18:36:47.829Z,2.80
2023-01-29T18:39:15.534Z,2.80
2023-01-29T18:41:43.926Z,2.30
2023-01-29T18:44:14.633Z,2.38
2023-01-29T18:46:42.183Z,2.22
2023-01-29T18:49:10.795Z,2.50
2023-01-29T18:51:38.469Z,2.28
2023-01-29T18:54:07.633Z,2.55
2023-01-29T18:56:35.325Z,2.92
2023-01-29T18:59:04.932Z,2.40
2023-01-29T19:01:34.540Z,2.30
2023-01-29T19:04:06.354Z,2.50
2023-01-29T19:06:34.971Z,2.30
2023-01-29T19:09:03.684Z,2.00
2023-01-29T19:11:32.870Z,2.53
2023-01-29T19:14:00.396Z,2.43
2023-01-29T19:16:28.211Z,2.03
2023-01-29T19:18:56.794Z,3.03
2023-01-29T19:21:24.477Z,2.22
2023-01-29T19:23:52.079Z,2.30
2023-01-29T19:26:20.076Z,2.60
2023-01-29T19:28:49.251Z,2.30
2023-01-29T19:31:16.901Z,3.03
2023-01-29T19:33:46.669Z,3.30
2023-01-29T19:36:14.240Z,3.55
2023-01-29T19:38:42.560Z,3.90
2023-01-29T19:41:10.316Z,3.72
2023-01-29T19:43:40.698Z,4.13
2023-01-29T19:46:10.397Z,5.00
2023-01-29T19:48:38.100Z,3.72
2023-01-29T19:51:08.445Z,4.53
2023-01-29T19:53:36.640Z,4.68
2023-01-29T19:56:05.851Z,4.25
2023-01-29T19:58:33.778Z,3.70
2023-01-29T20:01:02.198Z,4.07
2023-01-29T20:03:31.767Z,4.17
2023-01-29T20:06:03.517Z,3.70
2023-01-29T20:08:31.568Z,4.53
2023-01-29T20:10:59.345Z,5.32
2023-01-29T20:13:26.917Z,4.50
2023-01-29T20:15:55.258Z,5.40
2023-01-29T20:18:23.026Z,4.55
2023-01-29T20:20:53.087Z,3.97
2023-01-29T20:23:36.762Z,5.57
2023-01-29T20:26:06.268Z,4.72
2023-01-29T20:28:34.487Z,4.70
2023-01-29T20:31:02.109Z,4.78
2023-01-29T20:33:29.824Z,2.75
2023-01-29T20:36:00.110Z,4.90
2023-01-29T20:38:38.310Z,3.35
2023-01-29T20:41:07.523Z,3.87
2023-01-29T20:43:35.663Z,4.28
2023-01-29T20:46:03.899Z,3.90
2023-01-29T20:48:32.064Z,4.53
2023-01-29T20:51:05.943Z,4.25
2023-01-29T20:53:34.061Z,4.33
2023-01-29T20:56:04.108Z,4.40
2023-01-29T20:58:32.436Z,4.57
2023-01-29T21:01:00.374Z,4.60
2023-01-29T21:03:28.177Z,3.28
2023-01-29T21:05:59.545Z,4.43
2023-01-29T21:08:33.324Z,4.78
2023-01-29T21:11:00.878Z,4.43
2023-01-29T21:13:28.663Z,4.47
2023-01-29T21:15:56.371Z,4.88
2023-01-29T21:18:25.719Z,5.20
2023-01-29T21:20:53.881Z,5.45
2023-01-29T21:23:21.791Z,5.10
2023-01-29T21:25:50.836Z,4.55
2023-01-29T21:28:18.445Z,4.55
2023-01-29T21:30:46.470Z,4.60
2023-01-29T21:33:14.209Z,5.32
2023-01-29T21:35:41.839Z,3.55
2023-01-29T21:38:09.472Z,5.38
2023-01-29T21:40:37.123Z,4.70
2023-01-29T21:43:15.938Z,4.97
2023-01-29T21:45:44.141Z,5.43
2023-01-29T21:48:13.669Z,5.35
2023-01-29T21:50:41.178Z,5.28
2023-01-29T21:53:08.886Z,4.10
2023-01-29T21:55:36.415Z,4.77
2023-01-29T21:58:04.319Z,4.22
2023-01-29T22:00:33.762Z,5.07
2023-01-29T22:03:01.322Z,3.75
2023-01-29T22:05:30.115Z,3.65
2023-01-29T22:07:58.198Z,4.00
2023-01-29T22:10:25.991Z,4.28
2023-01-29T22:12:54.091Z,3.70
2023-01-29T22:15:23.773Z,4.03
2023-01-29T22:17:52.960Z,4.55
2023-01-29T22:20:20.683Z,4.50
2023-01-29T22:22:48.635Z,4.25
2023-01-29T22:25:20.011Z,4.20
2023-01-29T22:27:49.357Z,4.47
2023-01-29T22:30:17.567Z,5.22
2023-01-29T22:32:45.267Z,4.10
2023-01-29T22:35:14.521Z,4.63
2023-01-29T22:37:42.367Z,5.22
2023-01-29T22:40:14.108Z,4.82
2023-01-29T22:42:41.807Z,3.92
2023-01-29T22:45:10.469Z,5.03
2023-01-29T22:47:38.172Z,4.72
2023-01-29T22:50:06.254Z,5.15
2023-01-29T22:52:39.443Z,4.57
2023-01-29T22:55:08.394Z,3.80
2023-01-29T22:57:36.097Z,4.73
2023-01-29T23:00:05.545Z,4.97
2023-01-29T23:02:33.116Z,4.75
2023-01-29T23:05:05.274Z,4.35
2023-01-29T23:07:32.785Z,5.93
2023-01-29T23:10:03.500Z,5.00
2023-01-29T23:12:31.200Z,5.00
2023-01-29T23:14:58.741Z,4.30
2023-01-29T23:17:26.409Z,4.97
2023-01-29T23:19:54.216Z,4.63
2023-01-29T23:22:21.763Z,3.33
2023-01-29T23:24:49.339Z,4.53
2023-01-29T23:27:17.460Z,5.22
2023-01-29T23:29:45.566Z,5.13
2023-01-29T23:32:17.315Z,3.92
2023-01-29T23:34:44.887Z,3.90
2023-01-29T23:37:12.510Z,2.95
2023-01-29T23:39:40.286Z,3.45
2023-01-29T23:42:08.001Z,2.90
2023-01-29T23:44:41.208Z,2.60
2023-01-29T23:47:08.816Z,2.00
2023-01-29T23:49:36.395Z,2.03
2023-01-29T23:52:04.497Z,2.42
2023-01-29T23:54:32.122Z,2.40
2023-01-29T23:56:59.756Z,1.80
2023-01-29T23:59:28.597Z,2.00
